Time;durP1;ratioP1;P1;durP2;ratioP2;P2;SDS_P1;SDS_P2;PMS_P1;PMS_P2;Temp;Humidity;BMP_temperature;BMP_pressure;BME280_temperature;BME280_humidity;BME280_pressure;Samples;Min_cycle;Max_cycle;Signal;HPM_P1;HPM_P2
2021/01/06 00:00:39;;;;;;;27.13;18.77;;;5.60;93.70;;;;;;5104387;28;20443;-81
2021/01/06 00:03:05;;;;;;;23.23;15.60;;;5.50;93.60;;;;;;5104321;28;20428;-81
2021/01/06 00:05:31;;;;;;;32.53;17.50;;;5.60;93.70;;;;;;5104995;28;20460;-80
2021/01/06 00:07:57;;;;;;;23.40;16.03;;;5.60;93.80;;;;;;5105690;28;20432;-81
2021/01/06 00:10:27;;;;;;;27.97;17.70;;;5.60;93.80;;;;;;5103835;28;20460;-81
2021/01/06 00:12:54;;;;;;;26.30;17.00;;;5.60;93.80;;;;;;5104414;28;20492;-81
2021/01/06 00:15:22;;;;;;;22.70;15.70;;;5.60;93.80;;;;;;5104831;28;20447;-81
2021/01/06 00:17:49;;;;;;;28.20;16.87;;;5.60;93.80;;;;;;5104734;28;20453;-81
2021/01/06 00:20:16;;;;;;;22.17;15.00;;;5.60;93.80;;;;;;5105076;28;20471;-81
2021/01/06 00:22:42;;;;;;;24.03;16.40;;;5.60;94.20;;;;;;5104555;28;20490;-80
2021/01/06 00:25:11;;;;;;;29.13;16.43;;;5.60;93.80;;;;;;5104409;28;20440;-81
2021/01/06 00:27:38;;;;;;;22.13;14.73;;;5.60;93.80;;;;;;5104200;28;20439;-80
2021/01/06 00:30:09;;;;;;;20.47;15.07;;;5.60;93.80;;;;;;5104238;28;20474;-80
2021/01/06 00:32:35;;;;;;;20.57;16.10;;;5.60;93.90;;;;;;5104482;28;20431;-81
2021/01/06 00:35:03;;;;;;;19.33;14.20;;;5.60;93.80;;;;;;5105110;28;20462;-80
2021/01/06 00:37:29;;;;;;;18.57;14.20;;;5.60;93.90;;;;;;5104949;28;20444;-80
2021/01/06 00:39:55;;;;;;;22.90;15.57;;;5.60;93.90;;;;;;5104959;28;20525;-81
2021/01/06 00:42:21;;;;;;;20.63;14.00;;;5.60;93.90;;;;;;5105151;28;20486;-80
2021/01/06 00:44:48;;;;;;;19.20;13.57;;;5.60;94.00;;;;;;5105251;28;20459;-81
2021/01/06 00:47:14;;;;;;;18.53;14.70;;;5.60;94.10;;;;;;5105885;28;20459;-80
2021/01/06 00:49:40;;;;;;;18.00;13.57;;;5.60;94.20;;;;;;5105357;28;20466;-81
2021/01/06 00:52:07;;;;;;;18.17;13.43;;;5.60;94.20;;;;;;5105986;28;20462;-81
2021/01/06 00:54:34;;;;;;;17.60;13.13;;;5.60;94.20;;;;;;5105502;28;20471;-80
2021/01/06 00:57:00;;;;;;;21.77;13.80;;;5.60;94.20;;;;;;5105625;28;20432;-80
2021/01/06 00:59:27;;;;;;;20.50;14.63;;;5.60;94.20;;;;;;5104336;28;20468;-80
2021/01/06 01:01:53;;;;;;;20.30;13.63;;;5.70;94.30;;;;;;5104273;28;20480;-80
2021/01/06 01:04:19;;;;;;;20.77;14.33;;;5.70;94.20;;;;;;5104876;28;20455;-81
2021/01/06 01:06:45;;;;;;;19.80;14.57;;;5.60;94.20;;;;;;5104684;28;20452;-81
2021/01/06 01:09:12;;;;;;;20.70;14.23;;;5.60;94.30;;;;;;5105276;28;20468;-81
2021/01/06 01:11:39;;;;;;;17.30;12.63;;;5.60;94.40;;;;;;5105061;28;20801;-81
2021/01/06 01:14:06;;;;;;;18.40;13.17;;;5.70;94.50;;;;;;5104729;28;20440;-81
2021/01/06 01:16:32;;;;;;;20.20;12.97;;;5.60;94.50;;;;;;5105055;28;20444;-81
2021/01/06 01:18:59;;;;;;;18.00;13.70;;;5.70;94.40;;;;;;5103894;28;20856;-80
2021/01/06 01:21:31;;;;;;;24.00;14.33;;;5.70;94.40;;;;;;5104189;28;20475;-81
2021/01/06 01:23:57;;;;;;;18.60;13.27;;;5.70;94.40;;;;;;5104991;28;20475;-81
2021/01/06 01:26:24;;;;;;;18.53;13.80;;;5.70;94.50;;;;;;5103905;28;20991;-81
2021/01/06 01:28:50;;;;;;;15.97;13.00;;;5.70;94.40;;;;;;5104246;28;20833;-80
2021/01/06 01:31:16;;;;;;;20.70;13.17;;;5.70;94.80;;;;;;5104545;28;20444;-81
2021/01/06 01:33:43;;;;;;;17.20;12.60;;;5.70;94.40;;;;;;5103957;28;20950;-81
2021/01/06 01:36:09;;;;;;;18.00;12.80;;;5.70;94.80;;;;;;5104487;28;20781;-81
2021/01/06 01:38:36;;;;;;;15.40;12.37;;;5.70;94.50;;;;;;5104528;28;20465;-81
2021/01/06 01:41:06;;;;;;;18.83;12.70;;;5.70;94.50;;;;;;5103623;28;20440;-81
2021/01/06 01:43:34;;;;;;;16.63;12.53;;;5.70;94.60;;;;;;5103372;28;20429;-81
2021/01/06 01:46:35;;;;;;;15.07;11.97;;;5.70;94.50;;;;;;5103682;28;20950;-81
2021/01/06 01:49:05;;;;;;;14.23;11.03;;;5.70;94.40;;;;;;5104399;28;20478;-81
2021/01/06 01:51:36;;;;;;;14.97;12.50;;;5.80;94.40;;;;;;5104010;28;20436;-81
2021/01/06 01:54:05;;;;;;;16.70;12.57;;;5.70;94.40;;;;;;5104171;28;20462;-82
2021/01/06 01:56:40;;;;;;;14.53;10.97;;;5.70;94.40;;;;;;5104353;28;20528;-81
2021/01/06 01:59:14;;;;;;;19.10;12.93;;;5.70;94.50;;;;;;5103729;28;20451;-81
2021/01/06 02:01:40;;;;;;;14.87;11.37;;;5.80;94.50;;;;;;5106147;28;20521;-81
2021/01/06 02:04:13;;;;;;;15.57;13.03;;;5.80;94.50;;;;;;5108927;28;20479;-81
2021/01/06 02:06:47;;;;;;;15.80;11.53;;;5.80;94.50;;;;;;5108939;28;20420;-81
2021/01/06 02:09:22;;;;;;;16.20;12.60;;;5.80;94.50;;;;;;5108931;28;20463;-81
2021/01/06 02:11:56;;;;;;;15.27;10.90;;;5.80;94.50;;;;;;5103160;28;20423;-81
2021/01/06 02:14:29;;;;;;;11.83;10.33;;;5.80;94.50;;;;;;5105978;28;20417;-81
2021/01/06 02:17:01;;;;;;;15.63;11.80;;;5.80;94.50;;;;;;5106956;28;20500;-81
2021/01/06 02:19:31;;;;;;;16.87;10.50;;;5.70;94.50;;;;;;5104918;28;20510;-80
2021/01/06 02:21:59;;;;;;;14.17;11.13;;;5.70;94.60;;;;;;5102543;28;20468;-80
2021/01/06 02:24:25;;;;;;;14.80;9.90;;;5.70;94.60;;;;;;5102994;28;20439;-80
2021/01/06 02:26:52;;;;;;;12.10;10.03;;;5.70;94.50;;;;;;5101971;28;20448;-80
2021/01/06 02:29:18;;;;;;;12.23;10.83;;;5.70;94.50;;;;;;5101158;28;20467;-80
2021/01/06 02:31:45;;;;;;;13.37;10.30;;;5.80;94.50;;;;;;5101395;28;20494;-80
2021/01/06 02:34:12;;;;;;;13.17;10.57;;;5.80;94.40;;;;;;5100515;28;20465;-80
2021/01/06 02:36:38;;;;;;;12.67;10.30;;;5.80;94.40;;;;;;5100245;28;20810;-80
2021/01/06 02:39:08;;;;;;;15.83;10.70;;;5.80;94.40;;;;;;5099940;28;20472;-80
2021/01/06 02:41:34;;;;;;;12.97;10.73;;;5.70;94.50;;;;;;5099833;28;20482;-80
2021/01/06 02:44:00;;;;;;;14.00;10.20;;;5.80;94.50;;;;;;5100535;28;20448;-80
2021/01/06 02:46:26;;;;;;;13.23;10.43;;;5.80;94.60;;;;;;5099728;28;20447;-80
2021/01/06 02:48:53;;;;;;;11.93;9.83;;;5.80;94.50;;;;;;5099474;28;20997;-81
2021/01/06 02:51:26;;;;;;;12.43;10.10;;;5.80;94.50;;;;;;5099322;28;20448;-81
2021/01/06 02:53:55;;;;;;;13.70;10.50;;;5.80;94.60;;;;;;5099923;28;20432;-80
2021/01/06 02:56:22;;;;;;;11.13;8.90;;;5.70;94.60;;;;;;5099556;28;20447;-81
2021/01/06 02:58:51;;;;;;;12.27;9.33;;;5.80;94.70;;;;;;5098724;28;20456;-80
2021/01/06 03:01:21;;;;;;;9.97;8.67;;;5.80;94.70;;;;;;5099195;28;20480;-81
2021/01/06 03:03:51;;;;;;;10.60;8.80;;;5.80;94.60;;;;;;5099467;28;20566;-80
2021/01/06 03:06:25;;;;;;;13.57;9.60;;;5.80;94.60;;;;;;5098831;28;20419;-80
2021/01/06 03:08:52;;;;;;;13.97;10.50;;;5.80;94.60;;;;;;5098181;28;21011;-80
2021/01/06 03:11:18;;;;;;;15.40;10.87;;;5.80;94.60;;;;;;5098328;28;20448;-80
2021/01/06 03:13:45;;;;;;;14.00;10.00;;;5.80;94.60;;;;;;5098680;28;20447;-80
2021/01/06 03:16:11;;;;;;;12.77;10.43;;;5.80;94.60;;;;;;5098524;28;20861;-80
2021/01/06 03:18:38;;;;;;;14.27;11.23;;;5.80;94.60;;;;;;5097905;28;20448;-80
2021/01/06 03:21:07;;;;;;;13.00;10.60;;;5.80;94.60;;;;;;5098419;28;20436;-80
2021/01/06 03:23:37;;;;;;;15.30;10.40;;;5.80;94.50;;;;;;5097782;28;20432;-79
2021/01/06 03:26:07;;;;;;;12.70;10.80;;;5.90;94.60;;;;;;5098013;28;20432;-80
2021/01/06 03:28:36;;;;;;;14.00;10.37;;;5.80;94.60;;;;;;5098522;28;20467;-80
2021/01/06 03:31:07;;;;;;;11.00;9.00;;;5.80;94.50;;;;;;5098252;28;20451;-80
2021/01/06 03:33:37;;;;;;;13.03;10.20;;;5.90;94.60;;;;;;5098137;28;20890;-80
2021/01/06 03:36:08;;;;;;;14.80;11.40;;;5.80;94.60;;;;;;5098352;28;20409;-80
2021/01/06 03:38:38;;;;;;;12.57;10.43;;;5.80;94.50;;;;;;5098096;28;20484;-80
2021/01/06 03:41:06;;;;;;;12.13;9.87;;;5.90;94.60;;;;;;5098038;28;20448;-80
2021/01/06 03:43:37;;;;;;;14.10;9.83;;;5.90;94.50;;;;;;5097760;28;20448;-80
2021/01/06 03:46:10;;;;;;;13.23;9.70;;;5.90;94.60;;;;;;5098638;28;20435;-79
2021/01/06 03:48:47;;;;;;;11.93;9.50;;;5.90;94.50;;;;;;5098992;28;20493;-79
2021/01/06 03:51:23;;;;;;;13.67;10.03;;;5.90;94.50;;;;;;5098131;28;20435;-80
2021/01/06 03:53:51;;;;;;;11.27;9.63;;;5.90;94.50;;;;;;5098848;28;20444;-80
2021/01/06 03:56:22;;;;;;;11.97;9.60;;;5.90;94.50;;;;;;5097688;28;20436;-79
2021/01/06 03:58:53;;;;;;;11.60;9.67;;;5.90;94.40;;;;;;5098569;28;20456;-79
2021/01/06 04:01:34;;;;;;;10.80;8.80;;;5.90;94.40;;;;;;5097757;28;20412;-79
2021/01/06 04:04:11;;;;;;;12.40;10.20;;;5.90;94.40;;;;;;5098217;28;20460;-80
2021/01/06 04:06:38;;;;;;;12.20;9.47;;;5.90;94.30;;;;;;5097670;28;20481;-79
2021/01/06 04:09:11;;;;;;;11.40;9.23;;;5.90;94.30;;;;;;5097078;28;20479;-79
2021/01/06 04:11:37;;;;;;;14.10;10.70;;;5.90;94.20;;;;;;5097209;28;20436;-80
2021/01/06 04:14:04;;;;;;;14.30;10.43;;;5.90;94.20;;;;;;5097556;28;20452;-79
2021/01/06 04:16:32;;;;;;;10.60;9.50;;;5.80;94.30;;;;;;5097218;28;20937;-79
2021/01/06 04:18:58;;;;;;;13.10;10.03;;;5.90;94.40;;;;;;5097773;28;20996;-79
2021/01/06 04:21:29;;;;;;;14.37;10.73;;;5.90;94.30;;;;;;5096788;28;20483;-79
2021/01/06 04:23:56;;;;;;;11.27;10.07;;;5.90;94.40;;;;;;5097518;28;20442;-79
2021/01/06 04:26:23;;;;;;;14.73;11.10;;;5.90;94.40;;;;;;5097039;28;20447;-79
2021/01/06 04:28:49;;;;;;;13.30;10.37;;;5.90;94.40;;;;;;5097305;28;20479;-79
2021/01/06 04:31:19;;;;;;;14.70;11.20;;;5.90;94.40;;;;;;5097079;28;20456;-80
2021/01/06 04:33:48;;;;;;;13.03;11.17;;;5.90;94.30;;;;;;5098621;28;20845;-79
2021/01/06 04:36:17;;;;;;;12.20;10.40;;;5.90;94.30;;;;;;5097392;28;20455;-79
2021/01/06 04:38:45;;;;;;;11.47;10.10;;;5.90;94.30;;;;;;5100536;28;20471;-80
2021/01/06 04:41:28;;;;;;;16.07;11.43;;;5.90;94.30;;;;;;5100885;28;20475;-79
2021/01/06 04:44:08;;;;;;;13.67;11.50;;;5.90;94.30;;;;;;5100710;28;20431;-79
2021/01/06 04:46:58;;;;;;;11.53;9.10;;;5.90;94.20;;;;;;5100318;28;20428;-80
2021/01/06 04:49:33;;;;;;;12.20;8.67;;;5.90;94.10;;;;;;5100379;28;20463;-79
2021/01/06 04:52:04;;;;;;;10.90;8.50;;;5.90;94.10;;;;;;5099993;28;20432;-79
2021/01/06 04:54:48;;;;;;;9.90;8.20;;;5.90;94.10;;;;;;5099675;28;20459;-79
2021/01/06 04:57:44;;;;;;;13.10;9.90;;;5.90;94.20;;;;;;5100938;28;20464;-79
2021/01/06 05:00:46;;;;;;;11.93;10.07;;;5.90;94.20;;;;;;5097087;28;20486;-79
2021/01/06 05:03:41;;;;;;;11.73;8.80;;;5.90;94.20;;;;;;5099554;28;20965;-79
2021/01/06 05:06:47;;;;;;;13.50;10.30;;;5.90;94.20;;;;;;5100565;28;20424;-80
2021/01/06 05:09:19;;;;;;;13.30;9.80;;;5.90;94.20;;;;;;5099556;28;20456;-80
2021/01/06 05:11:56;;;;;;;12.43;10.47;;;5.90;94.10;;;;;;5098913;28;20442;-80
2021/01/06 05:14:28;;;;;;;11.13;9.23;;;5.90;94.20;;;;;;5098502;28;20436;-80
2021/01/06 05:16:56;;;;;;;10.73;9.00;;;5.90;94.20;;;;;;5104799;28;20436;-80
2021/01/06 05:19:24;;;;;;;12.37;10.20;;;5.90;94.10;;;;;;5104437;28;20479;-80
2021/01/06 05:21:52;;;;;;;11.73;9.13;;;5.90;94.10;;;;;;5104661;28;20460;-80
2021/01/06 05:24:23;;;;;;;13.03;10.10;;;5.90;94.10;;;;;;5104145;28;20447;-80
2021/01/06 05:26:56;;;;;;;12.80;9.80;;;5.90;93.90;;;;;;5103129;28;20443;-80
2021/01/06 05:29:26;;;;;;;11.00;8.67;;;5.90;93.90;;;;;;5102969;28;20467;-80
2021/01/06 05:31:53;;;;;;;11.50;9.33;;;5.90;93.80;;;;;;5101894;28;20428;-80
2021/01/06 05:34:19;;;;;;;11.93;9.00;;;5.90;93.90;;;;;;5101966;28;20452;-80
2021/01/06 05:36:47;;;;;;;11.67;9.50;;;5.90;93.90;;;;;;5101039;28;20448;-80
2021/01/06 05:39:21;;;;;;;11.50;9.10;;;5.90;93.90;;;;;;5100773;28;20468;-80
2021/01/06 05:41:49;;;;;;;11.63;10.00;;;5.90;93.90;;;;;;5101670;28;20478;-80
2021/01/06 05:44:15;;;;;;;11.63;9.90;;;5.90;93.90;;;;;;5101245;28;20501;-80
2021/01/06 05:46:45;;;;;;;13.23;9.57;;;5.90;93.90;;;;;;5100873;28;20432;-80
2021/01/06 05:49:20;;;;;;;13.73;9.57;;;5.90;93.80;;;;;;5101256;28;20456;-79
2021/01/06 05:51:53;;;;;;;10.50;9.40;;;5.90;93.90;;;;;;5100459;28;20469;-80
2021/01/06 05:54:23;;;;;;;10.53;9.23;;;5.90;93.80;;;;;;5100710;28;20922;-80
2021/01/06 05:56:57;;;;;;;12.77;10.57;;;5.90;93.80;;;;;;5099165;28;20942;-80
2021/01/06 05:59:51;;;;;;;11.07;9.30;;;5.90;93.80;;;;;;5098783;28;20475;-80
2021/01/06 06:02:25;;;;;;;11.27;9.90;;;5.90;93.80;;;;;;5100450;28;20468;-80
2021/01/06 06:05:19;;;;;;;10.57;9.47;;;5.90;93.80;;;;;;5100169;28;20470;-80
2021/01/06 06:08:02;;;;;;;11.87;9.87;;;5.90;93.80;;;;;;5099910;28;20439;-80
2021/01/06 06:11:15;;;;;;;11.77;10.03;;;5.90;93.80;;;;;;5099557;28;20464;-80
2021/01/06 06:14:20;;;;;;;12.83;9.00;;;5.90;93.80;;;;;;5083605;28;20801;-80
2021/01/06 06:16:59;;;;;;;11.80;8.40;;;5.90;93.80;;;;;;5073310;28;20443;-81
2021/01/06 06:19:50;;;;;;;9.97;8.70;;;5.90;93.80;;;;;;5101603;28;20459;-81
2021/01/06 06:22:22;;;;;;;10.40;8.33;;;5.90;93.80;;;;;;5098758;28;20463;-81
2021/01/06 06:24:58;;;;;;;11.10;8.90;;;5.90;93.80;;;;;;5098227;28;20424;-81
2021/01/06 06:27:47;;;;;;;11.07;9.60;;;5.90;93.70;;;;;;5095886;28;20819;-80
2021/01/06 06:30:26;;;;;;;11.00;9.20;;;5.90;93.70;;;;;;5095284;28;20479;-81
2021/01/06 06:32:52;;;;;;;11.17;8.50;;;5.90;93.70;;;;;;5095534;28;20424;-81
2021/01/06 06:35:21;;;;;;;12.17;9.57;;;5.90;93.70;;;;;;5094821;28;20953;-81
2021/01/06 06:37:54;;;;;;;11.00;8.53;;;5.80;93.60;;;;;;5095508;28;20439;-82
2021/01/06 06:40:21;;;;;;;11.23;9.20;;;5.80;93.60;;;;;;5096334;28;20459;-80
2021/01/06 06:42:55;;;;;;;11.83;9.40;;;5.80;93.50;;;;;;5095889;28;20485;-81
2021/01/06 06:45:43;;;;;;;11.60;9.83;;;5.80;93.90;;;;;;5095951;28;20423;-80
2021/01/06 06:48:15;;;;;;;13.10;10.43;;;5.80;93.60;;;;;;5096222;28;20454;-80
2021/01/06 06:50:51;;;;;;;11.53;10.33;;;5.80;93.40;;;;;;5096111;28;20422;-80
2021/01/06 06:53:25;;;;;;;13.47;9.67;;;5.80;93.40;;;;;;5096918;28;20785;-80
2021/01/06 06:56:01;;;;;;;13.67;10.93;;;5.80;93.30;;;;;;5097223;28;20803;-80
2021/01/06 06:58:37;;;;;;;12.67;10.90;;;5.80;93.30;;;;;;5095791;28;20435;-81
2021/01/06 07:01:09;;;;;;;14.60;10.53;;;5.80;93.20;;;;;;5095957;28;20454;-81
2021/01/06 07:03:39;;;;;;;12.77;10.43;;;5.80;93.20;;;;;;5096705;28;21126;-80
2021/01/06 07:06:09;;;;;;;11.40;10.13;;;5.80;93.20;;;;;;5097033;28;20782;-80
2021/01/06 07:08:42;;;;;;;14.07;11.30;;;5.80;93.20;;;;;;5095070;28;20467;-80
2021/01/06 07:11:28;;;;;;;14.70;11.67;;;5.80;93.20;;;;;;5095922;28;20416;-80
2021/01/06 07:13:58;;;;;;;15.73;13.47;;;5.80;93.20;;;;;;5096147;28;20432;-80
2021/01/06 07:16:31;;;;;;;16.83;12.43;;;5.70;93.20;;;;;;5096334;28;20432;-80
2021/01/06 07:19:19;;;;;;;15.60;12.40;;;5.80;93.30;;;;;;5096286;28;20472;-81
2021/01/06 07:21:51;;;;;;;18.30;12.13;;;5.70;93.20;;;;;;5095517;28;20459;-80
2021/01/06 07:24:20;;;;;;;14.30;11.60;;;5.70;93.20;;;;;;5097467;28;20436;-81
2021/01/06 07:26:51;;;;;;;16.97;12.50;;;5.70;93.10;;;;;;5096000;28;20805;-80
2021/01/06 07:29:20;;;;;;;16.90;12.67;;;5.70;93.10;;;;;;5095878;28;20483;-80
2021/01/06 07:31:54;;;;;;;19.17;12.97;;;5.70;93.10;;;;;;5095996;28;20507;-80
2021/01/06 07:34:28;;;;;;;18.90;14.97;;;5.70;93.10;;;;;;5095270;28;20774;-81
2021/01/06 07:36:58;;;;;;;19.60;14.90;;;5.70;93.10;;;;;;5095563;28;20532;-80
2021/01/06 07:39:28;;;;;;;18.33;14.80;;;5.70;93.10;;;;;;5095100;28;20524;-80
2021/01/06 07:41:55;;;;;;;18.90;14.43;;;5.60;93.00;;;;;;5095465;28;20534;-80
2021/01/06 07:44:26;;;;;;;15.90;12.83;;;5.60;92.90;;;;;;5095635;28;20447;-80
2021/01/06 07:47:10;;;;;;;15.40;13.23;;;5.70;93.00;;;;;;5096235;28;20420;-80
2021/01/06 07:49:45;;;;;;;17.10;13.80;;;5.60;92.90;;;;;;5096131;28;20467;-80
2021/01/06 07:52:42;;;;;;;15.63;12.27;;;5.60;92.80;;;;;;5095574;28;20420;-80
2021/01/06 07:55:27;;;;;;;18.50;13.87;;;5.60;92.70;;;;;;5078974;28;20949;-80
2021/01/06 07:57:57;;;;;;;19.90;14.30;;;5.60;92.60;;;;;;5095109;28;20432;-80
2021/01/06 08:00:30;;;;;;;18.00;14.50;;;5.50;92.50;;;;;;5095122;28;20497;-80
2021/01/06 08:03:16;;;;;;;19.47;13.90;;;5.50;92.40;;;;;;5095980;28;20476;-80
2021/01/06 08:05:52;;;;;;;19.17;14.70;;;5.50;92.40;;;;;;5096482;28;20420;-79
2021/01/06 08:08:19;;;;;;;22.17;14.50;;;5.50;92.30;;;;;;5096555;28;20770;-80
2021/01/06 08:10:48;;;;;;;22.67;16.47;;;5.50;92.30;;;;;;5096730;28;20458;-80
2021/01/06 08:13:25;;;;;;;25.40;16.53;;;5.50;92.30;;;;;;5099165;28;20984;-80
2021/01/06 08:15:55;;;;;;;22.73;15.70;;;5.50;92.20;;;;;;5099975;28;20427;-80
2021/01/06 08:18:31;;;;;;;21.67;14.77;;;5.50;92.30;;;;;;5099571;28;20411;-81
2021/01/06 08:21:06;;;;;;;18.30;14.83;;;5.50;92.20;;;;;;5102042;28;20426;-81
2021/01/06 08:23:59;;;;;;;24.57;15.70;;;5.50;92.20;;;;;;5102213;28;20490;-80
2021/01/06 08:26:28;;;;;;;26.23;17.60;;;5.60;92.30;;;;;;5102326;28;20448;-80
2021/01/06 08:29:08;;;;;;;25.93;18.00;;;5.60;92.30;;;;;;5101800;28;20472;-80
2021/01/06 08:31:37;;;;;;;27.47;18.50;;;5.60;92.20;;;;;;5101042;28;20430;-81
2021/01/06 08:34:05;;;;;;;23.33;17.67;;;5.60;92.10;;;;;;5099464;28;20443;-80
2021/01/06 08:36:35;;;;;;;26.23;18.53;;;5.60;92.00;;;;;;5099714;28;20812;-81
2021/01/06 08:39:10;;;;;;;26.40;18.57;;;5.60;92.00;;;;;;5098806;28;20460;-81
2021/01/06 08:41:36;;;;;;;25.70;19.47;;;5.60;91.90;;;;;;5098999;28;20428;-81
2021/01/06 08:44:05;;;;;;;28.27;20.33;;;5.60;91.90;;;;;;5098952;28;20465;-80
2021/01/06 08:46:34;;;;;;;24.00;17.47;;;5.60;91.80;;;;;;5099101;28;20444;-81
2021/01/06 08:49:23;;;;;;;19.67;15.60;;;5.60;91.80;;;;;;5099178;28;20886;-80
2021/01/06 08:51:49;;;;;;;22.00;17.10;;;5.70;91.80;;;;;;5099464;28;20432;-80
2021/01/06 08:54:30;;;;;;;18.20;16.00;;;5.60;91.70;;;;;;5099176;28;20456;-80
2021/01/06 08:57:05;;;;;;;24.90;17.63;;;5.60;91.60;;;;;;5099241;28;20428;-80
2021/01/06 08:59:36;;;;;;;20.07;15.80;;;5.60;91.60;;;;;;5098379;28;20470;-80
2021/01/06 09:02:10;;;;;;;17.90;14.83;;;5.70;91.40;;;;;;5098937;28;20805;-80
2021/01/06 09:04:41;;;;;;;19.90;15.73;;;5.60;91.30;;;;;;5098116;28;20452;-80
2021/01/06 09:07:20;;;;;;;20.93;15.87;;;5.60;91.20;;;;;;5097769;28;20454;-80
2021/01/06 09:09:59;;;;;;;17.40;15.20;;;5.60;91.20;;;;;;5097833;28;20558;-81
2021/01/06 09:12:44;;;;;;;17.93;14.20;;;5.60;91.20;;;;;;5099166;28;20917;-80
2021/01/06 09:15:21;;;;;;;17.63;14.93;;;5.60;91.20;;;;;;5099648;28;20440;-80
2021/01/06 09:17:52;;;;;;;17.53;14.37;;;5.50;91.10;;;;;;5098136;28;20460;-80
2021/01/06 09:20:22;;;;;;;18.93;15.50;;;5.50;91.20;;;;;;5097201;28;20588;-80
2021/01/06 09:22:49;;;;;;;18.30;15.13;;;5.60;91.30;;;;;;5096085;28;20467;-80
2021/01/06 09:25:19;;;;;;;21.07;16.23;;;5.60;91.40;;;;;;5097376;28;20439;-81
2021/01/06 09:27:48;;;;;;;18.60;14.97;;;5.60;91.60;;;;;;5097066;28;20444;-80
2021/01/06 09:30:23;;;;;;;23.60;16.23;;;5.70;91.70;;;;;;5097027;28;20464;-80
2021/01/06 09:32:51;;;;;;;20.50;16.83;;;5.70;92.10;;;;;;5096991;28;20431;-80
2021/01/06 09:35:20;;;;;;;22.00;17.27;;;5.80;91.90;;;;;;5096631;28;20585;-80
2021/01/06 09:37:56;;;;;;;19.90;15.70;;;5.80;91.90;;;;;;5096453;28;20474;-79
2021/01/06 09:40:27;;;;;;;29.40;16.93;;;5.90;92.00;;;;;;5097399;28;20464;-80
2021/01/06 09:42:59;;;;;;;19.73;14.93;;;5.90;92.00;;;;;;5097223;28;20472;-80
2021/01/06 09:45:27;;;;;;;26.83;17.77;;;5.90;92.10;;;;;;5097168;28;20929;-80
2021/01/06 09:47:58;;;;;;;20.33;16.03;;;6.00;92.20;;;;;;5096449;28;20937;-80
2021/01/06 09:50:30;;;;;;;23.03;18.40;;;6.10;92.00;;;;;;5096504;28;20513;-80
2021/01/06 09:53:00;;;;;;;23.33;18.17;;;6.10;92.00;;;;;;5096233;28;20432;-80
2021/01/06 09:55:28;;;;;;;21.13;17.27;;;6.10;92.00;;;;;;5096359;28;20436;-80
2021/01/06 09:58:06;;;;;;;21.93;17.50;;;6.20;92.00;;;;;;5095775;28;20810;-81
2021/01/06 10:00:42;;;;;;;24.47;18.63;;;6.20;92.00;;;;;;5096921;28;20467;-80
2021/01/06 10:03:09;;;;;;;26.30;18.07;;;6.20;91.90;;;;;;5097403;28;20468;-80
2021/01/06 10:05:47;;;;;;;23.17;17.73;;;6.30;91.80;;;;;;5096760;28;20440;-80
2021/01/06 10:08:29;;;;;;;21.07;17.40;;;6.30;91.50;;;;;;5096747;28;20451;-80
2021/01/06 10:11:01;;;;;;;24.70;18.07;;;6.30;91.50;;;;;;5097426;28;20470;-80
2021/01/06 10:13:40;;;;;;;24.50;17.73;;;6.40;91.50;;;;;;5096990;28;20485;-80
2021/01/06 10:16:10;;;;;;;22.53;17.23;;;6.40;91.50;;;;;;5096394;28;20791;-80
2021/01/06 10:18:46;;;;;;;26.47;18.70;;;6.50;91.40;;;;;;5096356;28;20468;-81
2021/01/06 10:21:22;;;;;;;29.33;19.07;;;6.50;91.10;;;;;;5095816;28;20485;-80
2021/01/06 10:24:02;;;;;;;22.30;17.00;;;6.50;91.10;;;;;;5095348;28;20467;-80
2021/01/06 10:26:40;;;;;;;22.53;17.47;;;6.50;91.10;;;;;;5096502;28;20906;-80
2021/01/06 10:29:14;;;;;;;23.53;17.07;;;6.60;91.30;;;;;;5096994;28;20518;-80
2021/01/06 10:32:06;;;;;;;25.97;17.53;;;6.70;91.30;;;;;;5097771;28;20428;-81
2021/01/06 10:34:38;;;;;;;19.13;16.03;;;6.70;91.10;;;;;;5096003;28;20523;-81
2021/01/06 10:37:22;;;;;;;23.30;19.30;;;6.80;91.00;;;;;;5096589;28;20451;-80
2021/01/06 10:39:51;;;;;;;26.23;21.53;;;6.80;90.70;;;;;;5096761;28;20474;-81
2021/01/06 10:42:34;;;;;;;24.30;19.60;;;6.80;90.40;;;;;;5097703;28;20475;-81
2021/01/06 10:45:08;;;;;;;24.70;19.10;;;6.80;89.80;;;;;;5096832;28;20428;-80
2021/01/06 10:47:49;;;;;;;25.43;19.07;;;6.80;89.90;;;;;;5097099;28;20520;-81
2021/01/06 10:50:45;;;;;;;23.90;18.60;;;6.80;89.80;;;;;;5097363;28;20841;-81
2021/01/06 10:53:24;;;;;;;27.67;21.07;;;6.90;90.00;;;;;;5097165;28;20454;-80
2021/01/06 10:56:00;;;;;;;24.90;20.73;;;6.90;89.50;;;;;;5096511;28;20439;-81
2021/01/06 10:58:38;;;;;;;27.20;20.07;;;6.90;89.60;;;;;;5096420;28;20435;-81
2021/01/06 11:01:27;;;;;;;29.73;23.80;;;6.90;89.80;;;;;;5096565;28;20910;-81
2021/01/06 11:04:15;;;;;;;25.87;21.20;;;7.00;90.00;;;;;;5096480;28;20494;-81
2021/01/06 11:06:51;;;;;;;25.83;19.97;;;6.90;88.50;;;;;;5095993;28;20918;-80
2021/01/06 11:09:47;;;;;;;27.77;21.83;;;7.00;88.70;;;;;;5096520;28;20527;-80
2021/01/06 11:12:28;;;;;;;28.27;21.43;;;7.00;88.60;;;;;;5096229;28;20943;-80
2021/01/06 11:15:14;;;;;;;23.97;18.70;;;7.00;88.40;;;;;;5095940;28;20485;-81
2021/01/06 11:17:43;;;;;;;21.50;18.10;;;7.00;88.30;;;;;;5096526;28;20442;-81
2021/01/06 11:20:30;;;;;;;30.57;21.37;;;7.00;88.50;;;;;;5096445;28;20539;-81
2021/01/06 11:23:36;;;;;;;28.30;20.50;;;7.10;88.80;;;;;;5097008;28;20459;-80
2021/01/06 11:26:30;;;;;;;26.07;20.50;;;7.10;88.90;;;;;;5092911;28;20463;-81
2021/01/06 11:29:05;;;;;;;26.97;19.20;;;7.00;88.20;;;;;;5097861;28;20880;-81
2021/01/06 11:31:34;;;;;;;20.17;16.70;;;7.10;88.40;;;;;;5097567;28;20439;-80
2021/01/06 11:34:28;;;;;;;28.63;19.87;;;7.10;88.60;;;;;;5097185;28;20436;-80
2021/01/06 11:36:56;;;;;;;24.30;19.53;;;7.10;88.50;;;;;;5097398;28;20432;-81
2021/01/06 11:39:46;;;;;;;32.53;17.90;;;7.10;88.30;;;;;;5096069;28;20460;-81
2021/01/06 11:42:14;;;;;;;24.57;17.87;;;7.10;88.20;;;;;;5096352;28;20830;-81
2021/01/06 11:44:45;;;;;;;21.80;17.40;;;7.10;87.80;;;;;;5096382;28;20455;-80
2021/01/06 11:47:29;;;;;;;24.73;19.00;;;7.10;87.90;;;;;;5099349;28;20466;-80
2021/01/06 11:50:01;;;;;;;23.23;17.77;;;7.10;87.90;;;;;;5099822;28;20520;-82
2021/01/06 11:52:39;;;;;;;25.10;18.60;;;7.10;87.10;;;;;;5100522;28;20435;-81
2021/01/06 11:55:38;;;;;;;27.13;19.30;;;7.10;87.10;;;;;;5100489;28;20444;-82
2021/01/06 11:58:35;;;;;;;23.00;16.70;;;7.00;86.80;;;;;;5100364;28;20435;-82
2021/01/06 12:01:21;;;;;;;22.80;17.87;;;7.00;86.80;;;;;;5087967;28;20448;-82
2021/01/06 12:04:11;;;;;;;25.17;18.60;;;7.00;86.90;;;;;;5099645;28;20576;-82
2021/01/06 12:06:45;;;;;;;23.97;18.57;;;7.00;87.20;;;;;;5100509;28;20416;-82
2021/01/06 12:09:31;;;;;;;27.00;20.30;;;6.90;87.10;;;;;;5099731;28;20965;-83
2021/01/06 12:12:06;;;;;;;24.67;19.73;;;7.00;87.10;;;;;;5100303;28;20431;-82
2021/01/06 12:14:37;;;;;;;26.27;21.90;;;7.00;86.90;;;;;;5099740;28;20438;-82
2021/01/06 12:17:19;;;;;;;25.90;19.73;;;6.90;87.00;;;;;;5100502;28;20432;-82
2021/01/06 12:19:57;;;;;;;23.90;19.23;;;7.00;86.70;;;;;;5100159;28;20491;-82
2021/01/06 12:22:24;;;;;;;23.27;18.67;;;7.00;87.00;;;;;;5100135;28;20464;-82
2021/01/06 12:25:01;;;;;;;23.17;18.20;;;7.00;87.10;;;;;;5100042;28;20448;-82
2021/01/06 12:27:55;;;;;;;23.87;19.00;;;7.00;86.60;;;;;;5099280;28;20423;-82
2021/01/06 12:30:44;;;;;;;25.17;18.50;;;7.00;85.90;;;;;;5099685;28;20490;-81
2021/01/06 12:33:28;;;;;;;22.47;18.93;;;7.00;86.20;;;;;;5099318;28;20486;-82
2021/01/06 12:36:07;;;;;;;25.70;19.00;;;7.00;86.50;;;;;;5098985;28;20427;-82
2021/01/06 12:38:34;;;;;;;25.50;19.13;;;7.10;86.60;;;;;;5099294;28;20411;-83
2021/01/06 12:41:08;;;;;;;20.60;16.70;;;7.10;86.50;;;;;;5099205;28;20456;-82
2021/01/06 12:43:39;;;;;;;22.50;18.07;;;7.10;86.10;;;;;;5099281;28;20601;-82
2021/01/06 12:46:13;;;;;;;19.33;16.93;;;7.20;85.80;;;;;;5099245;28;20433;-82
2021/01/06 12:48:51;;;;;;;18.60;15.20;;;7.10;85.20;;;;;;5098717;28;20468;-83
2021/01/06 12:51:21;;;;;;;21.27;16.57;;;7.10;85.00;;;;;;5099352;28;20549;-83
2021/01/06 12:53:58;;;;;;;22.07;17.27;;;7.10;85.10;;;;;;5099087;28;20421;-82
2021/01/06 12:56:30;;;;;;;19.10;14.60;;;7.10;85.50;;;;;;5099122;28;20487;-83
2021/01/06 12:59:11;;;;;;;20.10;16.53;;;7.00;85.60;;;;;;5097192;28;20468;-82
2021/01/06 13:01:48;;;;;;;18.93;15.23;;;7.00;85.70;;;;;;5098874;28;20428;-82
2021/01/06 13:04:18;;;;;;;21.73;15.97;;;6.90;85.60;;;;;;5098446;28;20894;-82
2021/01/06 13:07:23;;;;;;;29.57;18.67;;;6.90;86.00;;;;;;5099211;28;20435;-83
2021/01/06 13:10:12;;;;;;;18.67;14.97;;;6.90;86.40;;;;;;5098911;28;20467;-83
2021/01/06 13:12:53;;;;;;;14.13;12.07;;;6.90;86.60;;;;;;5098794;28;20795;-82